^^
Station Historical Data
Daily Summary for March 15, 2018 Units:  Metric    English   Both
« Previous Day
Next Day »
Daily Weekly Monthly Yearly Custom
  High: Low: Average:
Temperature: -17.8 °C -23.8 °C -21.8 °C
Dew Point: -17.8 °C -25.7 °C -24.1 °C
Humidity: Humidity% 47% 74%
Wind Speed: 0km/h 0km/h 8.5km/h
Wind Gust: 0km/h - -
Wind- - NW
Pressure: 0 hPa 34313.7 hPa -
Precipitation: 0 mm    
Historical Graphs
 
 
Tabular Data for March 15, 2018
Time Temperature Dew Point Pressure Wind Wind Speed Wind Gust Humidity Rainfall Rate (Hourly) solar Conditions
-17.8 °C -17.8 °C 0 hPa Calm     Humidity% 0 mm SoftwareType W/m2 Conditions
00:00 -21.7 °C -22.7 °C 34313.7 hPa NNW 5 km/h 9 km/h 88% 0 mm WeatherDisplay:10.37 W/m2 RA
00:06 -21.8 °C -22.7 °C 34313.7 hPa NW 8.5 km/h 11.9 km/h 88% 0 mm WeatherDisplay:10.37 W/m2 RA
00:11 -21.8 °C -22.7 °C 34313.7 hPa NNW 9.8 km/h 15 km/h 88% 0 mm WeatherDisplay:10.37 W/m2 FEW
00:16 -21.8 °C -22.7 °C 34313.7 hPa NNW 6.9 km/h 12.9 km/h 88% 0 mm WeatherDisplay:10.37 W/m2 CLR
00:21 -21.8 °C -22.7 °C 34327.3 hPa NNW 7.2 km/h 10.3 km/h 88% 0 mm WeatherDisplay:10.37 W/m2 CLR
00:26 -21.8 °C -22.8 °C 34327.3 hPa NNW 8.2 km/h 20.8 km/h 88% 0 mm WeatherDisplay:10.37 W/m2 CLR
00:31 -21.9 °C -22.7 °C 34327.3 hPa NNW 0.8 km/h 11.9 km/h 89% 0 mm WeatherDisplay:10.37 W/m2 CLR
00:36 -21.9 °C -22.7 °C 34327.3 hPa NNW 9 km/h 15 km/h 89% 0 mm WeatherDisplay:10.37 W/m2 CLR
00:41 -21.9 °C -22.8 °C 34327.3 hPa NNW 12.4 km/h 20.9 km/h 89% 0 mm WeatherDisplay:10.37 W/m2 CLR
00:46 -22 °C -22.8 °C 34327.3 hPa Calm   3.1 km/h 89% 0 mm WeatherDisplay:10.37 W/m2 CLR
00:51 -22 °C -22.8 °C 34337.4 hPa NNW 10.9 km/h 15 km/h 89% 0 mm WeatherDisplay:10.37 W/m2 CLR
00:54 -22.1 °C -22.9 °C 34337.4 hPa NNW 3.1 km/h 11.9 km/h 89% 0 mm WeatherDisplay:10.37 W/m2 CLR
00:59 -22.1 °C -22.9 °C 34337.4 hPa NNW 8.9 km/h 15 km/h 89% 0 mm WeatherDisplay:10.37 W/m2 CLR
01:04 -22.1 °C -22.9 °C 34337.4 hPa NW 2.1 km/h 9 km/h 89% 0 mm WeatherDisplay:10.37 W/m2 CLR
01:09 -22.1 °C -22.9 °C 34337.4 hPa NNW 7.7 km/h 15 km/h 89% 0 mm WeatherDisplay:10.37 W/m2 CLR
01:14 -22.2 °C -23 °C 34337.4 hPa NW 6.3 km/h 10.3 km/h 89% 0 mm WeatherDisplay:10.37 W/m2 CLR
01:19 -22.2 °C -22.9 °C 34337.4 hPa NNW 8.9 km/h 15.6 km/h 90% 0 mm WeatherDisplay:10.37 W/m2 CLR
01:24 -22.2 °C -22.9 °C 34337.4 hPa WNW 1 km/h 9 km/h 90% 0 mm WeatherDisplay:10.37 W/m2 CLR
01:29 -22.2 °C -22.9 °C 34347.6 hPa NW 8.5 km/h 12.9 km/h 90% 0 mm WeatherDisplay:10.37 W/m2 CLR
01:34 -22.3 °C -23 °C 34347.6 hPa NW 6.8 km/h 9 km/h 90% 0 mm WeatherDisplay:10.37 W/m2 FEW
01:39 -22.3 °C -23 °C 34347.6 hPa Calm   9 km/h 90% 0 mm WeatherDisplay:10.37 W/m2 FEW
01:45 -22.3 °C -23.1 °C 34347.6 hPa NNW 7.2 km/h 12.9 km/h 90% 0 mm WeatherDisplay:10.37 W/m2 FEW
01:50 -22.3 °C -23.1 °C 34347.6 hPa NNW 0.3 km/h 6 km/h 90% 0 mm WeatherDisplay:10.37 W/m2 FEW
01:55 -22.4 °C -23.1 °C 34361.1 hPa NW 2.6 km/h 6 km/h 90% 0 mm WeatherDisplay:10.37 W/m2 FEW
02:00 -22.4 °C -23.2 °C 34361.1 hPa North 2.1 km/h 20.9 km/h 90% 0 mm WeatherDisplay:10.37 W/m2 FEW
02:05 -22.4 °C -23.2 °C 34361.1 hPa NNW 6.9 km/h 11.9 km/h 90% 0 mm WeatherDisplay:10.37 W/m2 CLR
02:10 -22.4 °C -23.2 °C 34361.1 hPa NNW 2.9 km/h 9 km/h 90% 0 mm WeatherDisplay:10.37 W/m2 CLR
02:15 -22.4 °C -23.2 °C 34361.1 hPa NNW 5 km/h 9 km/h 90% 0 mm WeatherDisplay:10.37 W/m2 CLR
02:20 -22.5 °C -23.2 °C 34361.1 hPa NNW 2.3 km/h 9 km/h 90% 0 mm WeatherDisplay:10.37 W/m2 CLR
02:25 -22.6 °C -23.3 °C 34361.1 hPa NNW 8.9 km/h 11.9 km/h 90% 0 mm WeatherDisplay:10.37 W/m2 CLR
02:30 -22.6 °C -23.3 °C 34361.1 hPa NW 6.9 km/h 12.9 km/h 90% 0 mm WeatherDisplay:10.37 W/m2 CLR
02:35 -22.6 °C -23.3 °C 34361.1 hPa WNW 9 km/h 17.9 km/h 90% 0 mm WeatherDisplay:10.37 W/m2 CLR
02:40 -22.6 °C -23.4 °C 34361.1 hPa NNW 3.7 km/h 15 km/h 90% 0 mm WeatherDisplay:10.37 W/m2 CLR
02:45 -22.6 °C -23.4 °C 34371.3 hPa NNW 2.9 km/h 9 km/h 90% 0 mm WeatherDisplay:10.37 W/m2 CLR
02:50 -22.7 °C -23.4 °C 34371.3 hPa NNW 8 km/h 15.6 km/h 90% 0 mm WeatherDisplay:10.37 W/m2 CLR
02:56 -22.7 °C -23.4 °C 34371.3 hPa NW 0.3 km/h 6 km/h 90% 0 mm WeatherDisplay:10.37 W/m2 CLR
03:01 -22.7 °C -23.5 °C 34371.3 hPa NW 6.8 km/h 20.9 km/h 90% 0 mm WeatherDisplay:10.37 W/m2 CLR
03:06 -22.7 °C -23.5 °C 34371.3 hPa NW 5.5 km/h 9 km/h 90% 0 mm WeatherDisplay:10.37 W/m2 CLR
03:11 -22.8 °C -23.5 °C 34371.3 hPa NNW 10.9 km/h 20.9 km/h 90% 0 mm WeatherDisplay:10.37 W/m2 CLR
03:16 -22.8 °C -23.5 °C 34371.3 hPa NW 5.5 km/h 12.9 km/h 91% 0 mm WeatherDisplay:10.37 W/m2 CLR
03:21 -22.8 °C -23.5 °C 34371.3 hPa WNW 1.8 km/h 9 km/h 91% 0 mm WeatherDisplay:10.37 W/m2 CLR
03:26 -22.9 °C -23.6 °C 34371.3 hPa NNW 2.1 km/h 15.6 km/h 90% 0 mm WeatherDisplay:10.37 W/m2 CLR
03:31 -22.9 °C -23.6 °C 34371.3 hPa NNW 7.2 km/h 12.9 km/h 90% 0 mm WeatherDisplay:10.37 W/m2 CLR
03:36 -22.9 °C -23.6 °C 34371.3 hPa NW 2.1 km/h 10.3 km/h 90% 0 mm WeatherDisplay:10.37 W/m2 CLR
03:41 -22.9 °C -23.7 °C 34371.3 hPa NW 6.9 km/h 12.9 km/h 90% 0 mm WeatherDisplay:10.37 W/m2 CLR
03:42 -22.9 °C -23.7 °C 34371.3 hPa WNW 11.1 km/h 23.8 km/h 90% 0 mm WeatherDisplay:10.37 W/m2 CLR
03:47 -22.9 °C -23.7 °C 34371.3 hPa NW 4.3 km/h 11.9 km/h 90% 0 mm WeatherDisplay:10.37 W/m2 CLR
03:52 -22.9 °C -23.7 °C 34371.3 hPa NNW 7.2 km/h 12.9 km/h 90% 0 mm WeatherDisplay:10.37 W/m2 CLR
03:57 -23 °C -23.7 °C 34371.3 hPa NNW 0.5 km/h 20.9 km/h 90% 0 mm WeatherDisplay:10.37 W/m2 CLR
04:02 -23 °C -23.8 °C 34384.8 hPa NW 9 km/h 11.9 km/h 90% 0 mm WeatherDisplay:10.37 W/m2 CLR
04:07 -23 °C -23.7 °C 34384.8 hPa NNW 7.2 km/h 17.9 km/h 91% 0 mm WeatherDisplay:10.37 W/m2 CLR
04:12 -23.1 °C -23.8 °C 34384.8 hPa NW 5 km/h 9 km/h 90% 0 mm WeatherDisplay:10.37 W/m2 CLR
04:17 -23.1 °C -23.8 °C 34384.8 hPa WNW 5.1 km/h 12.9 km/h 90% 0 mm WeatherDisplay:10.37 W/m2 CLR
04:22 -23.1 °C -23.8 °C 34384.8 hPa NNW 12.2 km/h 20.9 km/h 90% 0 mm WeatherDisplay:10.37 W/m2 CLR
04:27 -23.2 °C -23.9 °C 34384.8 hPa NNW 6.8 km/h 12.9 km/h 90% 0 mm WeatherDisplay:10.37 W/m2 CLR
04:33 -23.2 °C -23.9 °C 34384.8 hPa NNW 10.1 km/h 20.8 km/h 90% 0 mm WeatherDisplay:10.37 W/m2 CLR
04:38 -23.2 °C -23.9 °C 34384.8 hPa NNW 11.6 km/h 15 km/h 90% 0 mm WeatherDisplay:10.37 W/m2 CLR
04:43 -23.2 °C -23.9 °C 34384.8 hPa NNW 2.3 km/h 9 km/h 90% 0 mm WeatherDisplay:10.37 W/m2 CLR
04:48 -23.2 °C -23.9 °C 34395 hPa NNW 10.6 km/h 26.9 km/h 90% 0 mm WeatherDisplay:10.37 W/m2 CLR
04:53 -23.2 °C -24 °C 34395 hPa NNW 13.5 km/h 23.8 km/h 90% 0 mm WeatherDisplay:10.37 W/m2 CLR
04:58 -23.3 °C -24 °C 34395 hPa NNW 5.6 km/h 11.9 km/h 90% 0 mm WeatherDisplay:10.37 W/m2 CLR
05:03 -23.3 °C -24 °C 34395 hPa NNW 1.8 km/h 6 km/h 90% 0 mm WeatherDisplay:10.37 W/m2 CLR
05:08 -23.3 °C -24.1 °C 34395 hPa NNW 8.2 km/h 15 km/h 90% 0 mm WeatherDisplay:10.37 W/m2 CLR
05:13 -23.3 °C -24.1 °C 34395 hPa NW 3.7 km/h 10.3 km/h 90% 0 mm WeatherDisplay:10.37 W/m2 CLR
05:18 -23.4 °C -24.1 °C 34395 hPa Calm   11.9 km/h 90% 0 mm WeatherDisplay:10.37 W/m2 CLR
05:23 -23.4 °C -24.1 °C 34395 hPa NNW 8.5 km/h 15.6 km/h 90% 0 mm WeatherDisplay:10.37 W/m2 CLR
05:28 -23.4 °C -24.2 °C 34395 hPa NW 10.9 km/h 15.6 km/h 90% 0 mm WeatherDisplay:10.37 W/m2 CLR
05:33 -23.4 °C -24.2 °C 34395 hPa NW 10.9 km/h 15 km/h 90% 0 mm WeatherDisplay:10.37 W/m2 CLR
05:39 -23.4 °C -24.2 °C 34395 hPa NNW 9.3 km/h 15 km/h 90% 0 mm WeatherDisplay:10.37 W/m2 CLR
05:44 -23.4 °C -24.2 °C 34395 hPa NNW 11.6 km/h 20.9 km/h 90% 0 mm WeatherDisplay:10.37 W/m2
05:49 -23.5 °C -24.2 °C 34395 hPa NW 10.9 km/h 23.8 km/h 90% 0 mm WeatherDisplay:10.37 W/m2 CLR
05:54 -23.5 °C -24.2 °C 34395 hPa NNW 6.9 km/h 23.8 km/h 90% 0 mm WeatherDisplay:10.37 W/m2 CLR
05:59 -23.6 °C -24.3 °C 34395 hPa NW 6.4 km/h 11.9 km/h 90% 0 mm WeatherDisplay:10.37 W/m2 CLR
06:04 -23.6 °C -24.3 °C 34395 hPa NNW 11.1 km/h 12.9 km/h 90% 0 mm WeatherDisplay:10.37 W/m2 CLR
06:09 -23.6 °C -24.3 °C 34405.1 hPa NNW 5.5 km/h 20.9 km/h 90% 0 mm WeatherDisplay:10.37 W/m2 CLR
06:14 -23.6 °C -24.3 °C 34405.1 hPa NNW 6 km/h 15.6 km/h 90% 0 mm WeatherDisplay:10.37 W/m2 CLR
06:19 -23.7 °C -24.4 °C 34405.1 hPa NNW 6.8 km/h 11.9 km/h 90% 0 mm WeatherDisplay:10.37 W/m2 CLR
06:24 -23.7 °C -24.4 °C 34405.1 hPa NW 7.2 km/h 18.2 km/h 90% 0 mm WeatherDisplay:10.37 W/m2 CLR
06:29 -23.7 °C -24.4 °C 34405.1 hPa NW 6.3 km/h 9 km/h 90% 0 mm WeatherDisplay:10.37 W/m2 CLR
06:34 -23.7 °C -24.4 °C 34405.1 hPa NNW 7.7 km/h 11.9 km/h 90% 0 mm WeatherDisplay:10.37 W/m2 CLR
06:39 -23.7 °C -24.5 °C 34405.1 hPa NW 5 km/h 11.9 km/h 90% 0 mm WeatherDisplay:10.37 W/m2 CLR
06:45 -23.8 °C -24.5 °C 34418.7 hPa NNW 8 km/h 12.9 km/h 90% 0 mm WeatherDisplay:10.37 W/m2 CLR
06:50 -23.8 °C -24.5 °C 34418.7 hPa NNW 0.5 km/h 6 km/h 90% 0 mm WeatherDisplay:10.37 W/m2 CLR
06:55 -23.8 °C -24.6 °C 34418.7 hPa NNW 2.9 km/h 9 km/h 90% 0 mm WeatherDisplay:10.37 W/m2 CLR
07:00 -23.8 °C -24.6 °C 34418.7 hPa NNW 7.6 km/h 20.8 km/h 90% 0 mm WeatherDisplay:10.37 W/m2 CLR
07:05 -23.8 °C -24.6 °C 34418.7 hPa NW 0.3 km/h 3.1 km/h 90% 0 mm WeatherDisplay:10.37 W/m2 CLR
07:10 -23.8 °C -24.6 °C 34418.7 hPa NNW 6.8 km/h 11.9 km/h 90% 0 mm WeatherDisplay:10.37 W/m2 CLR
07:15 -23.8 °C -24.6 °C 34418.7 hPa NNW 8 km/h 15 km/h 90% 0 mm WeatherDisplay:10.37 W/m2 CLR
07:20 -23.8 °C -24.6 °C 34418.7 hPa WNW 0.3 km/h 6 km/h 90% 0 mm WeatherDisplay:10.37 W/m2 CLR
07:25 -23.8 °C -24.6 °C 34428.8 hPa WNW 3.4 km/h 10.3 km/h 90% 0 mm WeatherDisplay:10.37 W/m2 CLR
07:30 -23.8 °C -24.5 °C 34428.8 hPa NNW 7.7 km/h 15.6 km/h 90% 0 mm WeatherDisplay:10.37 W/m2 CLR
07:35 -23.8 °C -24.5 °C 34428.8 hPa NNW 3.4 km/h 11.9 km/h 90% 0 mm WeatherDisplay:10.37 W/m2 CLR
07:40 -23.7 °C -24.4 °C 34428.8 hPa NNW 7.7 km/h 12.9 km/h 90% 0 mm WeatherDisplay:10.37 W/m2 CLR
07:45 -23.7 °C -24.4 °C 34428.8 hPa NNW 16.9 km/h 29.8 km/h 90% 0 mm WeatherDisplay:10.37 W/m2 CLR
07:51 -23.6 °C -24.3 °C 34428.8 hPa NW 7.7 km/h 15.6 km/h 90% 0 mm WeatherDisplay:10.37 W/m2 CLR
07:56 -23.6 °C -24.4 °C 34428.8 hPa NNW 10.6 km/h 15.6 km/h 89% 0 mm WeatherDisplay:10.37 W/m2 CLR
08:01 -23.5 °C -24.3 °C 34428.8 hPa NW 7.2 km/h 11.9 km/h 89% 0 mm WeatherDisplay:10.37 W/m2 CLR
08:06 -23.4 °C -24.3 °C 34428.8 hPa North 12.4 km/h 20.9 km/h 89% 0 mm WeatherDisplay:10.37 W/m2 CLR
08:11 -23.4 °C -24.2 °C 34428.8 hPa NW 10.9 km/h 20.9 km/h 89% 0 mm WeatherDisplay:10.37 W/m2 CLR
08:16 -23.3 °C -24.1 °C 34428.8 hPa NNW 8.2 km/h 15.6 km/h 89% 0 mm WeatherDisplay:10.37 W/m2 CLR
08:21 -23.2 °C -24.1 °C 34428.8 hPa NW 13.2 km/h 26.9 km/h 88% 0 mm WeatherDisplay:10.37 W/m2 CLR
08:26 -23.1 °C -24 °C 34428.8 hPa NNW 10.6 km/h 20.8 km/h 88% 0 mm WeatherDisplay:10.37 W/m2 CLR
08:31 -23.1 °C -24.1 °C 34428.8 hPa North 15.8 km/h 23.8 km/h 87% 0 mm WeatherDisplay:10.37 W/m2 CLR
08:36 -23.1 °C -24.1 °C 34442.4 hPa NNW 7.2 km/h 12.9 km/h 87% 0 mm WeatherDisplay:10.37 W/m2 CLR
08:41 -23 °C -24 °C 34442.4 hPa NNW 12.7 km/h 26.9 km/h 87% 0 mm WeatherDisplay:10.37 W/m2 CLR
08:46 -22.9 °C -23.9 °C 34442.4 hPa WNW 5.6 km/h 12.9 km/h 87% 0 mm WeatherDisplay:10.37 W/m2 CLR
08:52 -22.9 °C -23.8 °C 34442.4 hPa NNW 9.3 km/h 20.9 km/h 87% 0 mm WeatherDisplay:10.37 W/m2 CLR
08:57 -22.8 °C -23.8 °C 34442.4 hPa NW 14.5 km/h 23.3 km/h 87% 0 mm WeatherDisplay:10.37 W/m2 CLR
09:02 -22.7 °C -23.7 °C 34442.4 hPa NNW 19.5 km/h 29.8 km/h 86% 0 mm WeatherDisplay:10.37 W/m2 CLR
09:07 -22.6 °C -23.7 °C 34442.4 hPa NNW 7.2 km/h 11.9 km/h 86% 0 mm WeatherDisplay:10.37 W/m2 CLR
09:12 -22.5 °C -23.7 °C 34442.4 hPa NW 5 km/h 11.9 km/h 85% 0 mm WeatherDisplay:10.37 W/m2 CLR
09:17 -22.4 °C -23.5 °C 34442.4 hPa NNW 5.6 km/h 12.9 km/h 85% 0 mm WeatherDisplay:10.37 W/m2 CLR
09:22 -22.3 °C -23.6 °C 34442.4 hPa North 16.3 km/h 23.8 km/h 84% 0 mm WeatherDisplay:10.37 W/m2 CLR
09:27 -22.3 °C -23.5 °C 34442.4 hPa NNW 13.2 km/h 20.9 km/h 84% 0 mm WeatherDisplay:10.37 W/m2 CLR
09:32 -22.2 °C -23.4 °C 34442.4 hPa NNW 14.5 km/h 23.3 km/h 84% 0 mm WeatherDisplay:10.37 W/m2 CLR
09:37 -22.1 °C -23.4 °C 34442.4 hPa NW 8 km/h 20.9 km/h 83% 0 mm WeatherDisplay:10.37 W/m2 CLR
09:42 -22 °C -23.3 °C 34442.4 hPa NNW 11.9 km/h 23.8 km/h 83% 0 mm WeatherDisplay:10.37 W/m2 CLR
09:47 -21.9 °C -23.3 °C 34452.6 hPa NW 0.8 km/h 7.7 km/h 82% 0 mm WeatherDisplay:10.37 W/m2 CLR
09:52 -21.8 °C -23.2 °C 34452.6 hPa NNW 12.2 km/h 23.8 km/h 82% 0 mm WeatherDisplay:10.37 W/m2 CLR
09:57 -21.8 °C -23.3 °C 34452.6 hPa NW 16.3 km/h 26.9 km/h 81% 0 mm WeatherDisplay:10.37 W/m2 CLR
10:03 -21.7 °C -23.2 °C 34452.6 hPa NW 7.2 km/h 12.9 km/h 81% 0 mm WeatherDisplay:10.37 W/m2 CLR
10:08 -21.5 °C -23.1 °C 34452.6 hPa North 12.4 km/h 20.9 km/h 80% 0 mm WeatherDisplay:10.37 W/m2 CLR
10:13 -21.5 °C -23.2 °C 34452.6 hPa NW 7.7 km/h 15.6 km/h 79% 0 mm WeatherDisplay:10.37 W/m2 CLR
10:18 -21.3 °C -23.1 °C 34452.6 hPa NNW 9.7 km/h 23.8 km/h 79% 0 mm WeatherDisplay:10.37 W/m2 CLR
10:23 -21.3 °C -23.2 °C 34452.6 hPa WNW 15.3 km/h 15.6 km/h 78% 0 mm WeatherDisplay:10.37 W/m2 CLR
10:28 -21.3 °C -23.1 °C 34452.6 hPa NW 6.3 km/h 10.3 km/h 78% 0 mm WeatherDisplay:10.37 W/m2 CLR
10:33 -21.2 °C -23 °C 34452.6 hPa NW 9 km/h 15.6 km/h 77% 0 mm WeatherDisplay:10.37 W/m2 CLR
10:38 -21 °C -22.9 °C 34452.6 hPa NNW 14.8 km/h 23.8 km/h 77% 0 mm WeatherDisplay:10.37 W/m2 CLR
10:43 -21 °C -22.9 °C 34452.6 hPa NNW 9 km/h 20.9 km/h 76% 0 mm WeatherDisplay:10.37 W/m2 CLR
10:48 -20.9 °C -22.9 °C 34452.6 hPa North 6.8 km/h 12.9 km/h 76% 0 mm WeatherDisplay:10.37 W/m2 CLR
10:53 -20.8 °C -22.8 °C 34452.6 hPa NNW 14 km/h 26.9 km/h 75% 0 mm WeatherDisplay:10.37 W/m2 CLR
10:58 -20.7 °C -22.8 °C 34452.6 hPa North 14.8 km/h 23.3 km/h 75% 0 mm WeatherDisplay:10.37 W/m2 CLR
11:03 -20.7 °C -22.7 °C 34452.6 hPa NNW 19.2 km/h 29.8 km/h 75% 0 mm WeatherDisplay:10.37 W/m2 CLR
11:09 -20.5 °C -22.6 °C 34462.7 hPa NW 2.9 km/h 10.3 km/h 75% 0 mm WeatherDisplay:10.37 W/m2 CLR
11:14 -20.3 °C -22.6 °C 34462.7 hPa NW 0.3 km/h 7.7 km/h 74% 0 mm WeatherDisplay:10.37 W/m2 CLR
11:19 -20.2 °C -22.6 °C 34462.7 hPa NNW 11.6 km/h 26.9 km/h 72% 0 mm WeatherDisplay:10.37 W/m2 CLR
11:24 -20.2 °C -22.7 °C 34462.7 hPa NNW 6.8 km/h 12.9 km/h 70% 0 mm WeatherDisplay:10.37 W/m2 CLR
11:29 -20.1 °C -22.9 °C 34462.7 hPa NW 6.8 km/h 20.9 km/h 68% 0 mm WeatherDisplay:10.37 W/m2 CLR
11:34 -20.1 °C -22.8 °C 34462.7 hPa NW 24.3 km/h 35.7 km/h 68% 0 mm WeatherDisplay:10.37 W/m2 CLR
11:39 -20.1 °C -23.1 °C 34462.7 hPa NNW 12.4 km/h 26.9 km/h 66% 0 mm WeatherDisplay:10.37 W/m2 CLR
11:44 -20.1 °C -23.2 °C 34462.7 hPa NNW 16.1 km/h 35.7 km/h 65% 0 mm WeatherDisplay:10.37 W/m2 CLR
11:49 -19.9 °C -23.2 °C 34462.7 hPa NW 17.5 km/h 29.8 km/h 64% 0 mm WeatherDisplay:10.37 W/m2 CLR
11:54 -19.9 °C -23.2 °C 34462.7 hPa NNW 10.9 km/h 23.8 km/h 63% 0 mm WeatherDisplay:10.37 W/m2 CLR
11:59 -19.8 °C -23.2 °C 34462.7 hPa North 7.2 km/h 12.9 km/h 63% 0 mm WeatherDisplay:10.37 W/m2 CLR
12:04 -19.7 °C -23.3 °C 34462.7 hPa West 23.3 km/h 29.8 km/h 61% 0 mm WeatherDisplay:10.37 W/m2 FEW
12:09 -19.9 °C -23.5 °C 34462.7 hPa NNW 19.5 km/h 36.2 km/h 61% 0 mm WeatherDisplay:10.37 W/m2 FEW
12:15 -19.6 °C -22.9 °C 34462.7 hPa NNW 1 km/h 6 km/h 63% 0 mm WeatherDisplay:10.37 W/m2 FEW
12:20 -19.3 °C -23.1 °C 34462.7 hPa NW 8.2 km/h 11.9 km/h 60% 0 mm WeatherDisplay:10.37 W/m2 FEW
12:25 -19.2 °C -23.2 °C 34462.7 hPa NNW 4.2 km/h 15.6 km/h 58% 0 mm WeatherDisplay:10.37 W/m2 FEW
12:30 -19.5 °C -23.6 °C 34462.7 hPa NNW 17.9 km/h 23.8 km/h 57% 0 mm WeatherDisplay:10.37 W/m2 FEW
12:35 -19.6 °C -23.7 °C 34462.7 hPa North 15 km/h 28.5 km/h 57% 0 mm WeatherDisplay:10.37 W/m2 FEW
12:40 -19.6 °C -23.6 °C 34462.7 hPa Calm   3.1 km/h 57% 0 mm WeatherDisplay:10.37 W/m2 FEW
12:45 -19.6 °C -23.8 °C 34462.7 hPa West 12.2 km/h 26.9 km/h 56% 0 mm WeatherDisplay:10.37 W/m2 FEW
12:50 -19.6 °C -23.7 °C 34462.7 hPa North 9.3 km/h 18.2 km/h 57% 0 mm WeatherDisplay:10.37 W/m2 FEW
12:55 -19.6 °C -23.9 °C 34462.7 hPa NNW 18.8 km/h 38.8 km/h 55% 0 mm WeatherDisplay:10.37 W/m2 FEW
13:00 -19.8 °C -24.2 °C 34462.7 hPa NNW 13.5 km/h 29.8 km/h 54% 0 mm WeatherDisplay:10.37 W/m2 FEW
13:05 -19.5 °C -23.8 °C 34462.7 hPa NW 15.8 km/h 25.9 km/h 55% 0 mm WeatherDisplay:10.37 W/m2 FEW
13:10 -19.7 °C -24.3 °C 34462.7 hPa NW 20.3 km/h 29.8 km/h 53% 0 mm WeatherDisplay:10.37 W/m2 FEW
13:15 -19.6 °C -23.8 °C 34462.7 hPa NNW 5.5 km/h 12.9 km/h 56% 0 mm WeatherDisplay:10.37 W/m2 FEW
13:21 -19.6 °C -24 °C 34462.7 hPa NNW 9 km/h 26.9 km/h 54% 0 mm WeatherDisplay:10.37 W/m2 FEW
13:26 -19.6 °C -24.2 °C 34462.7 hPa NW 14 km/h 31.1 km/h 53% 0 mm WeatherDisplay:10.37 W/m2 FEW
13:31 -19.6 °C -24.3 °C 34462.7 hPa NNW 10.1 km/h 23.8 km/h 52% 0 mm WeatherDisplay:10.37 W/m2 FEW
13:36 -19.6 °C -24.3 °C 34462.7 hPa NW 9.7 km/h 18.2 km/h 52% 0 mm WeatherDisplay:10.37 W/m2 FEW
13:41 -19.4 °C -24.3 °C 34462.7 hPa North 10.1 km/h 23.8 km/h 51% 0 mm WeatherDisplay:10.37 W/m2 FEW
13:46 -19.6 °C -24.7 °C 34462.7 hPa NNW 19.5 km/h 35.7 km/h 49% 0 mm WeatherDisplay:10.37 W/m2 FEW
13:51 -19.6 °C -24.5 °C 34462.7 hPa NNW 13.5 km/h 23.8 km/h 50% 0 mm WeatherDisplay:10.37 W/m2 FEW
13:56 -19.6 °C -24.8 °C 34462.7 hPa NW 10.3 km/h 29.8 km/h 49% 0 mm WeatherDisplay:10.37 W/m2 FEW
14:01 -19.7 °C -25.1 °C 34462.7 hPa NNW 20.8 km/h 36.2 km/h 47% 0 mm WeatherDisplay:10.37 W/m2 FEW
14:06 -19.8 °C -25 °C 34462.7 hPa NNE 10.3 km/h 20.9 km/h 48% 0 mm WeatherDisplay:10.37 W/m2 FEW
14:11 -19.8 °C -25 °C 34462.7 hPa North 10.6 km/h 29.8 km/h 48% 0 mm WeatherDisplay:10.37 W/m2 FEW
14:16 -19.8 °C -25.1 °C 34462.7 hPa NNW 15 km/h 29.8 km/h 48% 0 mm WeatherDisplay:10.37 W/m2 FEW
14:21 -19.8 °C -25 °C 34462.7 hPa NNW 12.2 km/h 28.5 km/h 48% 0 mm WeatherDisplay:10.37 W/m2 FEW
14:27 -19.8 °C -25.1 °C 34462.7 hPa NNW 6.9 km/h 38.8 km/h 48% 0 mm WeatherDisplay:10.37 W/m2 FEW
14:32 -19.9 °C -25.3 °C 34462.7 hPa NNW 17.5 km/h 32.8 km/h 47% 0 mm WeatherDisplay:10.37 W/m2 SCT
14:37 -19.9 °C -24.9 °C 34462.7 hPa NW 12.9 km/h 31.1 km/h 50% 0 mm WeatherDisplay:10.37 W/m2 SCT
14:42 -19.9 °C -24.9 °C 34462.7 hPa NE 17.9 km/h 31.1 km/h 50% 0 mm WeatherDisplay:10.37 W/m2 SCT
14:47 -19.9 °C -25 °C 34462.7 hPa NNW 22 km/h 38.8 km/h 49% 0 mm WeatherDisplay:10.37 W/m2 SCT
14:52 -19.9 °C -24.9 °C 34462.7 hPa North 8.2 km/h 23.8 km/h 50% 0 mm WeatherDisplay:10.37 W/m2 SCT
14:57 -19.9 °C -24.9 °C 34476.3 hPa NNW 12.7 km/h 32.8 km/h 50% 0 mm WeatherDisplay:10.37 W/m2 SCT
15:02 -19.9 °C -24.6 °C 34476.3 hPa NW 6.3 km/h 15.6 km/h 52% 0 mm WeatherDisplay:10.37 W/m2 SCT
15:07 -19.8 °C -24.4 °C 34476.3 hPa NW 23 km/h 44.1 km/h 53% 0 mm WeatherDisplay:10.37 W/m2 SCT
15:12 -19.9 °C -24.3 °C 34476.3 hPa NW 28 km/h 38.8 km/h 54% 0 mm WeatherDisplay:10.37 W/m2 SCT
15:17 -19.9 °C -24.3 °C 34476.3 hPa NNW 17.5 km/h 38.8 km/h 54% 0 mm WeatherDisplay:10.37 W/m2 SCT
15:22 -19.9 °C -24.2 °C 34476.3 hPa North 9.8 km/h 12.9 km/h 55% 0 mm WeatherDisplay:10.37 W/m2 SCT
15:28 -19.8 °C -23.9 °C 34476.3 hPa WSW 9.3 km/h 29.8 km/h 56% 0 mm WeatherDisplay:10.37 W/m2 SCT
15:33 -19.8 °C -24.3 °C 34486.4 hPa NW 6.4 km/h 29.8 km/h 54% 0 mm WeatherDisplay:10.37 W/m2 BKN
15:38 -19.9 °C -24.3 °C 34486.4 hPa NNE 16.3 km/h 33.6 km/h 54% 0 mm WeatherDisplay:10.37 W/m2 BKN
15:43 -20.1 °C -24.6 °C 34486.4 hPa NW 8.5 km/h 26.9 km/h 54% 0 mm WeatherDisplay:10.37 W/m2 BKN
15:48 -20.2 °C -24.6 °C 34486.4 hPa NNW 13.5 km/h 32.8 km/h 54% 0 mm WeatherDisplay:10.37 W/m2 BKN
15:53 -20.2 °C -24.3 °C 34486.4 hPa NW 15.8 km/h 26.9 km/h 56% 0 mm WeatherDisplay:10.37 W/m2 BKN
15:58 -20.2 °C -24.2 °C 34486.4 hPa NNW 10.3 km/h 32.8 km/h 57% 0 mm WeatherDisplay:10.37 W/m2 BKN
16:03 -20.2 °C -24.5 °C 34486.4 hPa NW 9.3 km/h 25.9 km/h 55% 0 mm WeatherDisplay:10.37 W/m2 SCT
16:08 -20.4 °C -24.5 °C 34496.6 hPa NNW 9.8 km/h 26.9 km/h 56% 0 mm WeatherDisplay:10.37 W/m2 SCT
16:13 -20.4 °C -24.4 °C 34496.6 hPa NE 11.4 km/h 29.8 km/h 57% 0 mm WeatherDisplay:10.37 W/m2 SCT
16:18 -20.4 °C -24.3 °C 34486.4 hPa NNW 5.6 km/h 26.9 km/h 58% 0 mm WeatherDisplay:10.37 W/m2 SCT
16:23 -20.4 °C -24.3 °C 34496.6 hPa North 22.9 km/h 32.8 km/h 58% 0 mm WeatherDisplay:10.37 W/m2 SCT
16:28 -20.5 °C -24.3 °C 34496.6 hPa WNW 9.3 km/h 25.9 km/h 59% 0 mm WeatherDisplay:10.37 W/m2 SCT
16:34 -20.6 °C -24.7 °C 34496.6 hPa NNW 15.3 km/h 44.1 km/h 56% 0 mm WeatherDisplay:10.37 W/m2 SCT
16:39 -20.8 °C -25.1 °C 34496.6 hPa North 8.2 km/h 26.9 km/h 54% 0 mm WeatherDisplay:10.37 W/m2 SCT
16:44 -20.8 °C -25.2 °C 34496.6 hPa NW 21.2 km/h 35.7 km/h 54% 0 mm WeatherDisplay:10.37 W/m2 SCT
16:49 -20.8 °C -25.1 °C 34496.6 hPa NNW 9.3 km/h 20.8 km/h 55% 0 mm WeatherDisplay:10.37 W/m2 SCT
16:54 -20.8 °C -24.9 °C 34496.6 hPa NNW 20.3 km/h 35.7 km/h 56% 0 mm WeatherDisplay:10.37 W/m2 SCT
16:59 -20.8 °C -24.9 °C 34496.6 hPa NNW 16.3 km/h 26.9 km/h 56% 0 mm WeatherDisplay:10.37 W/m2 SCT
17:04 -20.8 °C -25.1 °C 34510.1 hPa North 18.3 km/h 31.1 km/h 55% 0 mm WeatherDisplay:10.37 W/m2 FEW
17:09 -20.8 °C -25.1 °C 34510.1 hPa North 13.2 km/h 35.7 km/h 55% 0 mm WeatherDisplay:10.37 W/m2 FEW
17:14 -20.9 °C -24.9 °C 34510.1 hPa NE 3.9 km/h 29.8 km/h 56% 0 mm WeatherDisplay:10.37 W/m2 FEW
17:19 -20.9 °C -25.1 °C 34510.1 hPa NNW 8 km/h 35.7 km/h 55% 0 mm WeatherDisplay:10.37 W/m2 FEW
17:24 -20.9 °C -25.1 °C 34510.1 hPa WNW 12.2 km/h 26.9 km/h 55% 0 mm WeatherDisplay:10.37 W/m2 FEW
17:29 -20.9 °C -25.3 °C 34510.1 hPa NNW 22.5 km/h 36.2 km/h 54% 0 mm WeatherDisplay:10.37 W/m2 FEW
17:34 -21 °C -25.4 °C 34510.1 hPa NE 15.6 km/h 31.1 km/h 53% 0 mm WeatherDisplay:10.37 W/m2 FEW
17:40 -21 °C -25.2 °C 34520.3 hPa North 5.1 km/h 15 km/h 55% 0 mm WeatherDisplay:10.37 W/m2 FEW
17:45 -21.1 °C -25.5 °C 34520.3 hPa NNW 1.6 km/h 9 km/h 53% 0 mm WeatherDisplay:10.37 W/m2 FEW
17:50 -21.1 °C -25.4 °C 34520.3 hPa North 7.7 km/h 12.9 km/h 54% 0 mm WeatherDisplay:10.37 W/m2 FEW
17:55 -21.2 °C -25.5 °C 34520.3 hPa NW 5.1 km/h 15.6 km/h 54% 0 mm WeatherDisplay:10.37 W/m2 FEW
18:00 -21.2 °C -25.7 °C 34520.3 hPa NE 7.7 km/h 23.3 km/h 53% 0 mm WeatherDisplay:10.37 W/m2 FEW
18:05 -21.2 °C -25.6 °C 34520.3 hPa NE 5.6 km/h 15 km/h 54% 0 mm WeatherDisplay:10.37 W/m2 FEW
18:10 -21.3 °C -25.6 °C 34533.8 hPa NNE 1.3 km/h 9 km/h 54% 0 mm WeatherDisplay:10.37 W/m2 FEW
18:15 -21.3 °C -25.6 °C 34533.8 hPa NE 6.3 km/h 11.9 km/h 55% 0 mm WeatherDisplay:10.37 W/m2 FEW
18:20 -21.4 °C -25.6 °C 34533.8 hPa NW 5.6 km/h 15.6 km/h 55% 0 mm WeatherDisplay:10.37 W/m2 FEW
18:25 -21.4 °C -25.5 °C 34544 hPa NW 11.6 km/h 26.9 km/h 56% 0 mm WeatherDisplay:10.37 W/m2 FEW
18:30 -21.5 °C -25.6 °C 34544 hPa NNW 2.9 km/h 9 km/h 56% 0 mm WeatherDisplay:10.37 W/m2 FEW
18:35 -21.6 °C -25.5 °C 34544 hPa NW 7.7 km/h 23.8 km/h 57% 0 mm WeatherDisplay:10.37 W/m2 FEW
18:40 -21.6 °C -25.5 °C 34544 hPa Calm   6 km/h 57% 0 mm WeatherDisplay:10.37 W/m2 FEW
18:46 -21.6 °C -25.6 °C 34554.1 hPa Calm   6 km/h 57% 0 mm WeatherDisplay:10.37 W/m2 FEW
18:51 -21.7 °C -25.7 °C 34554.1 hPa Calm     57% 0 mm WeatherDisplay:10.37 W/m2 FEW
18:56 -21.8 °C -25.6 °C 34554.1 hPa NW 2.6 km/h 9 km/h 58% 0 mm WeatherDisplay:10.37 W/m2 FEW
19:01 -21.8 °C -25.7 °C 34554.1 hPa NW 5 km/h 9 km/h 58% 0 mm WeatherDisplay:10.37 W/m2 FEW
19:06 -21.8 °C -25.6 °C 34567.7 hPa NNW 6.3 km/h 12.9 km/h 59% 0 mm WeatherDisplay:10.37 W/m2 FEW
19:11 -21.9 °C -25.6 °C 34567.7 hPa NNW 8 km/h 23.8 km/h 59% 0 mm WeatherDisplay:10.37 W/m2 FEW
19:16 -21.9 °C -25.5 °C 34567.7 hPa NW 5.1 km/h 20.9 km/h 60% 0 mm WeatherDisplay:10.37 W/m2 FEW
19:21 -21.9 °C -25.5 °C 34567.7 hPa Calm     60% 0 mm WeatherDisplay:10.37 W/m2 FEW
19:26 -21.9 °C -25.6 °C 34567.7 hPa Calm   6 km/h 59% 0 mm WeatherDisplay:10.37 W/m2 FEW
19:31 -22 °C -25.4 °C 34567.7 hPa NNW 2.1 km/h 9 km/h 61% 0 mm WeatherDisplay:10.37 W/m2 FEW
19:36 -22.1 °C -25.6 °C 34577.8 hPa NNW 2.1 km/h 11.9 km/h 60% 0 mm WeatherDisplay:10.37 W/m2 FEW
19:41 -22.1 °C -25.5 °C 34567.7 hPa NNW 0.3 km/h 9 km/h 61% 0 mm WeatherDisplay:10.37 W/m2 FEW
19:46 -22.1 °C -25.6 °C 34567.7 hPa Calm     61% 0 mm WeatherDisplay:10.37 W/m2 FEW
19:52 -22.2 °C -25.5 °C 34577.8 hPa Calm     62% 0 mm WeatherDisplay:10.37 W/m2 FEW
21:47 -23.2 °C -25.3 °C 34601.5 hPa NNW 4.2 km/h 9 km/h 74% 0 mm WeatherDisplay:10.37 W/m2 FEW
21:52 -23.2 °C -25.3 °C 34601.5 hPa Calm     74% 0 mm WeatherDisplay:10.37 W/m2 FEW
21:57 -23.3 °C -25.3 °C 34601.5 hPa NNW 3.1 km/h 10.3 km/h 75% 0 mm WeatherDisplay:10.37 W/m2 FEW
22:02 -23.3 °C -25.3 °C 34601.5 hPa NNW 1.6 km/h 7.7 km/h 75% 0 mm WeatherDisplay:10.37 W/m2 CLR
22:07 -23.3 °C -25.3 °C 34601.5 hPa NNW 6 km/h 10.3 km/h 75% 0 mm WeatherDisplay:10.37 W/m2 CLR
22:13 -23.3 °C -25.2 °C 34601.5 hPa NNW 4.3 km/h 9 km/h 76% 0 mm WeatherDisplay:10.37 W/m2 CLR
22:18 -23.3 °C -25.2 °C 34601.5 hPa Calm   9 km/h 76% 0 mm WeatherDisplay:10.37 W/m2 CLR
22:23 -23.2 °C -25.2 °C 34601.5 hPa NNW 6.8 km/h 9 km/h 76% 0 mm WeatherDisplay:10.37 W/m2 CLR
22:28 -23.2 °C -25.2 °C 34601.5 hPa NNW 2.1 km/h 6 km/h 76% 0 mm WeatherDisplay:10.37 W/m2 CLR
22:33 -23.3 °C -25.2 °C 34601.5 hPa NNW 5 km/h 9 km/h 76% 0 mm WeatherDisplay:10.37 W/m2 CLR
22:38 -23.3 °C -25.2 °C 34601.5 hPa NNW 5.6 km/h 10.3 km/h 76% 0 mm WeatherDisplay:10.37 W/m2 CLR
22:43 -23.3 °C -25.1 °C 34611.7 hPa NNW 3.9 km/h 10.3 km/h 77% 0 mm WeatherDisplay:10.37 W/m2 CLR
22:48 -23.3 °C -25.2 °C 34611.7 hPa NNW 7.6 km/h 10.3 km/h 77% 0 mm WeatherDisplay:10.37 W/m2 CLR
22:53 -23.3 °C -25.1 °C 34601.5 hPa NNW 6.9 km/h 11.9 km/h 78% 0 mm WeatherDisplay:10.37 W/m2 CLR
22:58 -23.3 °C -25.1 °C 34611.7 hPa NNW 8.9 km/h 15 km/h 78% 0 mm WeatherDisplay:10.37 W/m2 CLR
23:03 -23.3 °C -25.1 °C 34601.5 hPa NNW 12.9 km/h 23.8 km/h 78% 0 mm WeatherDisplay:10.37 W/m2 CLR
23:08 -23.2 °C -24.9 °C 34611.7 hPa NNW 9.7 km/h 20.9 km/h 78% 0 mm WeatherDisplay:10.37 W/m2 CLR
23:13 -23.2 °C -25.1 °C 34611.7 hPa NNW 8 km/h 20.9 km/h 77% 0 mm WeatherDisplay:10.37 W/m2 CLR
23:19 -23.2 °C -25.1 °C 34611.7 hPa NNW 6 km/h 11.9 km/h 77% 0 mm WeatherDisplay:10.37 W/m2 CLR
23:24 -23.2 °C -25.1 °C 34611.7 hPa NNW 3.7 km/h 9 km/h 77% 0 mm WeatherDisplay:10.37 W/m2 CLR
23:29 -23.2 °C -25.1 °C 34611.7 hPa NNW 6.9 km/h 15 km/h 77% 0 mm WeatherDisplay:10.37 W/m2 CLR
23:34 -23.2 °C -25.1 °C 34611.7 hPa NNW 8.9 km/h 15 km/h 77% 0 mm WeatherDisplay:10.37 W/m2 CLR
23:39 -23.3 °C -25.1 °C 34611.7 hPa NNW 5 km/h 9 km/h 78% 0 mm WeatherDisplay:10.37 W/m2 CLR
23:44 -23.3 °C -25.1 °C 34611.7 hPa NNW 8.2 km/h 11.9 km/h 78% 0 mm WeatherDisplay:10.37 W/m2 CLR
23:49 -23.3 °C -25.1 °C 34611.7 hPa NNW 6.8 km/h 9 km/h 78% 0 mm WeatherDisplay:10.37 W/m2 CLR
23:54 -23.4 °C -25.1 °C 34611.7 hPa NNW 10.6 km/h 15.6 km/h 78% 0 mm WeatherDisplay:10.37 W/m2 CLR
23:59 -23.4 °C -25.1 °C 34611.7 hPa NNW 3.9 km/h 11.9 km/h 78% 0 mm WeatherDisplay:10.37 W/m2 CLR
Tuulensuunkaari, Veikkola, Suomi
Compliments of Weather Underground - 2.5 mb